sensor_id;sensor_type;location;lat;lon;timestamp;P1;durP1;ratioP1;P2;durP2;ratioP2
47335;SDS011;33068;51.990;5.926;2023-09-18T00:02:25;35.60;;;24.70;;
47335;SDS011;33068;51.990;5.926;2023-09-18T00:04:53;34.33;;;26.08;;
47335;SDS011;33068;51.990;5.926;2023-09-18T00:07:20;35.72;;;25.80;;
47335;SDS011;33068;51.990;5.926;2023-09-18T00:09:46;37.70;;;26.13;;
47335;SDS011;33068;51.990;5.926;2023-09-18T00:12:14;31.13;;;24.35;;
47335;SDS011;33068;51.990;5.926;2023-09-18T00:14:40;40.88;;;27.77;;
47335;SDS011;33068;51.990;5.926;2023-09-18T00:17:06;43.03;;;30.08;;
47335;SDS011;33068;51.990;5.926;2023-09-18T00:19:33;34.88;;;25.70;;
47335;SDS011;33068;51.990;5.926;2023-09-18T00:21:59;38.15;;;25.05;;
47335;SDS011;33068;51.990;5.926;2023-09-18T00:24:27;41.65;;;27.67;;
47335;SDS011;33068;51.990;5.926;2023-09-18T00:26:53;31.60;;;24.70;;
47335;SDS011;33068;51.990;5.926;2023-09-18T00:29:19;34.80;;;26.48;;
47335;SDS011;33068;51.990;5.926;2023-09-18T00:31:46;33.40;;;25.17;;
47335;SDS011;33068;51.990;5.926;2023-09-18T00:34:13;35.67;;;25.45;;
47335;SDS011;33068;51.990;5.926;2023-09-18T00:36:39;37.00;;;25.42;;
47335;SDS011;33068;51.990;5.926;2023-09-18T00:39:06;39.67;;;26.92;;
47335;SDS011;33068;51.990;5.926;2023-09-18T00:41:34;34.08;;;24.88;;
47335;SDS011;33068;51.990;5.926;2023-09-18T00:44:01;35.50;;;25.58;;
47335;SDS011;33068;51.990;5.926;2023-09-18T00:46:28;43.33;;;27.20;;
47335;SDS011;33068;51.990;5.926;2023-09-18T00:48:54;33.90;;;25.10;;
47335;SDS011;33068;51.990;5.926;2023-09-18T00:51:21;34.17;;;24.80;;
47335;SDS011;33068;51.990;5.926;2023-09-18T00:53:47;36.47;;;25.35;;
47335;SDS011;33068;51.990;5.926;2023-09-18T00:56:14;38.75;;;26.95;;
47335;SDS011;33068;51.990;5.926;2023-09-18T00:58:42;42.15;;;27.13;;
47335;SDS011;33068;51.990;5.926;2023-09-18T01:01:09;32.88;;;23.75;;
47335;SDS011;33068;51.990;5.926;2023-09-18T01:03:37;35.58;;;26.25;;
47335;SDS011;33068;51.990;5.926;2023-09-18T01:06:03;36.42;;;25.17;;
47335;SDS011;33068;51.990;5.926;2023-09-18T01:08:30;39.20;;;26.48;;
47335;SDS011;33068;51.990;5.926;2023-09-18T01:10:58;31.98;;;23.88;;
47335;SDS011;33068;51.990;5.926;2023-09-18T01:13:33;41.83;;;28.95;;
47335;SDS011;33068;51.990;5.926;2023-09-18T01:16:06;38.00;;;27.20;;
47335;SDS011;33068;51.990;5.926;2023-09-18T01:18:37;36.95;;;27.23;;
47335;SDS011;33068;51.990;5.926;2023-09-18T01:21:03;41.08;;;28.17;;
47335;SDS011;33068;51.990;5.926;2023-09-18T01:23:30;38.97;;;27.75;;
47335;SDS011;33068;51.990;5.926;2023-09-18T01:25:57;39.08;;;27.35;;
47335;SDS011;33068;51.990;5.926;2023-09-18T01:28:23;42.80;;;29.13;;
47335;SDS011;33068;51.990;5.926;2023-09-18T01:30:49;39.95;;;28.30;;
47335;SDS011;33068;51.990;5.926;2023-09-18T01:33:16;39.30;;;28.05;;
47335;SDS011;33068;51.990;5.926;2023-09-18T01:35:44;41.33;;;27.42;;
47335;SDS011;33068;51.990;5.926;2023-09-18T01:38:11;39.63;;;26.27;;
47335;SDS011;33068;51.990;5.926;2023-09-18T01:40:38;36.30;;;26.88;;
47335;SDS011;33068;51.990;5.926;2023-09-18T01:43:06;38.03;;;27.40;;
47335;SDS011;33068;51.990;5.926;2023-09-18T01:45:32;39.85;;;28.48;;
47335;SDS011;33068;51.990;5.926;2023-09-18T01:47:59;40.67;;;27.67;;
47335;SDS011;33068;51.990;5.926;2023-09-18T01:50:26;40.35;;;26.52;;
47335;SDS011;33068;51.990;5.926;2023-09-18T01:52:52;40.30;;;27.85;;
47335;SDS011;33068;51.990;5.926;2023-09-18T01:55:19;36.33;;;25.83;;
47335;SDS011;33068;51.990;5.926;2023-09-18T01:57:46;36.47;;;27.80;;
47335;SDS011;33068;51.990;5.926;2023-09-18T02:00:13;43.67;;;30.05;;
47335;SDS011;33068;51.990;5.926;2023-09-18T02:02:40;38.38;;;26.00;;
47335;SDS011;33068;51.990;5.926;2023-09-18T02:05:07;43.13;;;29.52;;
47335;SDS011;33068;51.990;5.926;2023-09-18T02:07:33;39.42;;;27.63;;
47335;SDS011;33068;51.990;5.926;2023-09-18T02:10:00;34.20;;;25.45;;
47335;SDS011;33068;51.990;5.926;2023-09-18T02:12:26;42.40;;;30.10;;
47335;SDS011;33068;51.990;5.926;2023-09-18T02:14:54;37.58;;;27.35;;
47335;SDS011;33068;51.990;5.926;2023-09-18T02:17:22;35.60;;;24.90;;
47335;SDS011;33068;51.990;5.926;2023-09-18T02:19:48;43.05;;;27.60;;
47335;SDS011;33068;51.990;5.926;2023-09-18T02:22:15;33.55;;;25.60;;
47335;SDS011;33068;51.990;5.926;2023-09-18T02:24:41;35.47;;;25.48;;
47335;SDS011;33068;51.990;5.926;2023-09-18T02:27:08;37.95;;;28.45;;
47335;SDS011;33068;51.990;5.926;2023-09-18T02:29:35;42.03;;;26.25;;
47335;SDS011;33068;51.990;5.926;2023-09-18T02:32:03;33.28;;;25.02;;
47335;SDS011;33068;51.990;5.926;2023-09-18T02:34:29;35.92;;;24.23;;
47335;SDS011;33068;51.990;5.926;2023-09-18T02:36:57;33.97;;;24.40;;
47335;SDS011;33068;51.990;5.926;2023-09-18T02:39:23;36.70;;;26.92;;
47335;SDS011;33068;51.990;5.926;2023-09-18T02:41:50;30.60;;;24.02;;
47335;SDS011;33068;51.990;5.926;2023-09-18T02:44:16;35.05;;;23.30;;
47335;SDS011;33068;51.990;5.926;2023-09-18T02:46:43;32.55;;;22.85;;
47335;SDS011;33068;51.990;5.926;2023-09-18T02:49:11;33.00;;;24.90;;
47335;SDS011;33068;51.990;5.926;2023-09-18T02:51:38;31.65;;;23.15;;
47335;SDS011;33068;51.990;5.926;2023-09-18T02:54:04;28.60;;;22.73;;
47335;SDS011;33068;51.990;5.926;2023-09-18T02:56:31;35.97;;;23.08;;
47335;SDS011;33068;51.990;5.926;2023-09-18T02:58:58;30.75;;;22.42;;
47335;SDS011;33068;51.990;5.926;2023-09-18T03:01:24;34.28;;;22.73;;
47335;SDS011;33068;51.990;5.926;2023-09-18T03:03:52;25.58;;;19.75;;
47335;SDS011;33068;51.990;5.926;2023-09-18T03:06:19;28.13;;;19.15;;
47335;SDS011;33068;51.990;5.926;2023-09-18T03:08:45;30.10;;;19.83;;
47335;SDS011;33068;51.990;5.926;2023-09-18T03:11:12;24.20;;;17.85;;
47335;SDS011;33068;51.990;5.926;2023-09-18T03:13:42;30.48;;;20.10;;
47335;SDS011;33068;51.990;5.926;2023-09-18T03:16:11;29.42;;;21.20;;
47335;SDS011;33068;51.990;5.926;2023-09-18T03:18:38;30.05;;;22.17;;
47335;SDS011;33068;51.990;5.926;2023-09-18T03:21:05;31.33;;;21.70;;
47335;SDS011;33068;51.990;5.926;2023-09-18T03:23:32;28.30;;;20.55;;
47335;SDS011;33068;51.990;5.926;2023-09-18T03:25:58;27.10;;;18.15;;
47335;SDS011;33068;51.990;5.926;2023-09-18T03:28:25;27.63;;;18.67;;
47335;SDS011;33068;51.990;5.926;2023-09-18T03:30:52;28.58;;;21.52;;
47335;SDS011;33068;51.990;5.926;2023-09-18T03:33:22;28.75;;;19.88;;
47335;SDS011;33068;51.990;5.926;2023-09-18T03:35:49;29.92;;;18.98;;
47335;SDS011;33068;51.990;5.926;2023-09-18T03:38:20;28.33;;;19.80;;
47335;SDS011;33068;51.990;5.926;2023-09-18T03:40:48;24.52;;;18.08;;
47335;SDS011;33068;51.990;5.926;2023-09-18T03:43:15;25.08;;;18.50;;
47335;SDS011;33068;51.990;5.926;2023-09-18T03:45:41;21.02;;;16.50;;
47335;SDS011;33068;51.990;5.926;2023-09-18T03:48:08;24.27;;;16.25;;
47335;SDS011;33068;51.990;5.926;2023-09-18T03:50:35;25.20;;;18.17;;
47335;SDS011;33068;51.990;5.926;2023-09-18T03:53:01;28.30;;;18.20;;
47335;SDS011;33068;51.990;5.926;2023-09-18T03:55:28;26.23;;;18.27;;
47335;SDS011;33068;51.990;5.926;2023-09-18T03:57:55;28.70;;;16.85;;
47335;SDS011;33068;51.990;5.926;2023-09-18T04:00:22;23.30;;;18.27;;
47335;SDS011;33068;51.990;5.926;2023-09-18T04:02:48;28.02;;;19.50;;
47335;SDS011;33068;51.990;5.926;2023-09-18T04:05:15;27.85;;;18.33;;
47335;SDS011;33068;51.990;5.926;2023-09-18T04:07:41;24.23;;;17.92;;
47335;SDS011;33068;51.990;5.926;2023-09-18T04:10:11;25.25;;;16.55;;
47335;SDS011;33068;51.990;5.926;2023-09-18T04:12:43;28.98;;;17.73;;
47335;SDS011;33068;51.990;5.926;2023-09-18T04:15:12;27.27;;;18.50;;
47335;SDS011;33068;51.990;5.926;2023-09-18T04:17:39;26.00;;;18.10;;
47335;SDS011;33068;51.990;5.926;2023-09-18T04:20:06;28.63;;;18.80;;
47335;SDS011;33068;51.990;5.926;2023-09-18T04:22:33;28.05;;;18.98;;
47335;SDS011;33068;51.990;5.926;2023-09-18T04:25:00;26.65;;;16.80;;
47335;SDS011;33068;51.990;5.926;2023-09-18T04:27:30;28.58;;;19.88;;
47335;SDS011;33068;51.990;5.926;2023-09-18T04:29:56;26.42;;;17.85;;
47335;SDS011;33068;51.990;5.926;2023-09-18T04:32:24;28.65;;;17.20;;
47335;SDS011;33068;51.990;5.926;2023-09-18T04:34:51;22.65;;;15.95;;
47335;SDS011;33068;51.990;5.926;2023-09-18T04:37:18;29.10;;;17.08;;
47335;SDS011;33068;51.990;5.926;2023-09-18T04:39:45;28.25;;;17.27;;
47335;SDS011;33068;51.990;5.926;2023-09-18T04:42:12;23.27;;;17.13;;
47335;SDS011;33068;51.990;5.926;2023-09-18T04:44:38;27.60;;;19.15;;
47335;SDS011;33068;51.990;5.926;2023-09-18T04:47:05;33.50;;;18.95;;
47335;SDS011;33068;51.990;5.926;2023-09-18T04:49:32;30.45;;;18.17;;
47335;SDS011;33068;51.990;5.926;2023-09-18T04:51:58;26.05;;;17.23;;
47335;SDS011;33068;51.990;5.926;2023-09-18T04:54:27;28.48;;;18.63;;
47335;SDS011;33068;51.990;5.926;2023-09-18T04:56:54;22.13;;;15.65;;
47335;SDS011;33068;51.990;5.926;2023-09-18T04:59:20;25.60;;;16.42;;
47335;SDS011;33068;51.990;5.926;2023-09-18T05:01:47;23.77;;;15.52;;
47335;SDS011;33068;51.990;5.926;2023-09-18T05:04:14;23.45;;;13.20;;
47335;SDS011;33068;51.990;5.926;2023-09-18T05:06:42;25.95;;;12.90;;
47335;SDS011;33068;51.990;5.926;2023-09-18T05:09:08;19.13;;;12.63;;
47335;SDS011;33068;51.990;5.926;2023-09-18T05:11:42;26.20;;;11.30;;
47335;SDS011;33068;51.990;5.926;2023-09-18T05:14:08;17.90;;;10.88;;
47335;SDS011;33068;51.990;5.926;2023-09-18T05:16:35;21.25;;;11.63;;
47335;SDS011;33068;51.990;5.926;2023-09-18T05:19:02;18.67;;;9.68;;
47335;SDS011;33068;51.990;5.926;2023-09-18T05:21:29;18.33;;;10.07;;
47335;SDS011;33068;51.990;5.926;2023-09-18T05:23:56;18.52;;;9.93;;
47335;SDS011;33068;51.990;5.926;2023-09-18T05:26:22;16.20;;;9.55;;
47335;SDS011;33068;51.990;5.926;2023-09-18T05:28:49;15.38;;;9.75;;
47335;SDS011;33068;51.990;5.926;2023-09-18T05:34:41;16.17;;;10.85;;
47335;SDS011;33068;51.990;5.926;2023-09-18T05:37:07;17.95;;;11.00;;
47335;SDS011;33068;51.990;5.926;2023-09-18T05:39:35;19.55;;;12.20;;
47335;SDS011;33068;51.990;5.926;2023-09-18T05:42:02;22.10;;;12.90;;
47335;SDS011;33068;51.990;5.926;2023-09-18T06:00:35;25.90;;;13.98;;
47335;SDS011;33068;51.990;5.926;2023-09-18T06:03:02;22.20;;;13.90;;
47335;SDS011;33068;51.990;5.926;2023-09-18T06:05:30;26.40;;;14.48;;
47335;SDS011;33068;51.990;5.926;2023-09-18T06:07:59;29.90;;;15.02;;
47335;SDS011;33068;51.990;5.926;2023-09-18T06:10:25;24.50;;;16.15;;
47335;SDS011;33068;51.990;5.926;2023-09-18T06:12:52;26.20;;;14.88;;
47335;SDS011;33068;51.990;5.926;2023-09-18T06:15:19;21.45;;;14.45;;
47335;SDS011;33068;51.990;5.926;2023-09-18T06:17:47;25.67;;;14.77;;
47335;SDS011;33068;51.990;5.926;2023-09-18T06:20:14;25.58;;;16.20;;
47335;SDS011;33068;51.990;5.926;2023-09-18T06:22:42;25.77;;;16.30;;
47335;SDS011;33068;51.990;5.926;2023-09-18T06:25:09;22.10;;;14.13;;
47335;SDS011;33068;51.990;5.926;2023-09-18T06:27:35;23.35;;;13.98;;
47335;SDS011;33068;51.990;5.926;2023-09-18T06:30:03;26.45;;;15.20;;
47335;SDS011;33068;51.990;5.926;2023-09-18T06:32:30;20.60;;;13.50;;
47335;SDS011;33068;51.990;5.926;2023-09-18T06:34:57;23.05;;;13.98;;
47335;SDS011;33068;51.990;5.926;2023-09-18T06:37:23;22.58;;;14.15;;
47335;SDS011;33068;51.990;5.926;2023-09-18T06:39:50;22.33;;;14.75;;
47335;SDS011;33068;51.990;5.926;2023-09-18T06:42:16;23.00;;;14.40;;
47335;SDS011;33068;51.990;5.926;2023-09-18T06:44:43;19.08;;;13.18;;
47335;SDS011;33068;51.990;5.926;2023-09-18T06:47:10;20.80;;;13.20;;
47335;SDS011;33068;51.990;5.926;2023-09-18T06:49:36;24.10;;;12.90;;
47335;SDS011;33068;51.990;5.926;2023-09-18T06:52:03;17.88;;;12.18;;
47335;SDS011;33068;51.990;5.926;2023-09-18T06:54:31;15.85;;;11.18;;
47335;SDS011;33068;51.990;5.926;2023-09-18T06:56:57;21.23;;;11.35;;
47335;SDS011;33068;51.990;5.926;2023-09-18T06:59:24;18.70;;;11.30;;
47335;SDS011;33068;51.990;5.926;2023-09-18T07:01:50;10.38;;;8.90;;
47335;SDS011;33068;51.990;5.926;2023-09-18T07:04:17;15.98;;;8.57;;
47335;SDS011;33068;51.990;5.926;2023-09-18T07:06:43;13.32;;;7.80;;
47335;SDS011;33068;51.990;5.926;2023-09-18T07:09:12;15.15;;;7.50;;
47335;SDS011;33068;51.990;5.926;2023-09-18T07:11:39;13.10;;;6.88;;
47335;SDS011;33068;51.990;5.926;2023-09-18T07:14:05;11.05;;;6.78;;
47335;SDS011;33068;51.990;5.926;2023-09-18T07:16:33;7.70;;;5.50;;
47335;SDS011;33068;51.990;5.926;2023-09-18T07:18:59;9.40;;;6.72;;
47335;SDS011;33068;51.990;5.926;2023-09-18T07:21:26;8.48;;;4.78;;
47335;SDS011;33068;51.990;5.926;2023-09-18T07:23:54;5.57;;;4.25;;
47335;SDS011;33068;51.990;5.926;2023-09-18T07:26:21;6.15;;;4.18;;
47335;SDS011;33068;51.990;5.926;2023-09-18T07:28:47;9.55;;;3.92;;
47335;SDS011;33068;51.990;5.926;2023-09-18T07:31:14;4.80;;;3.35;;
47335;SDS011;33068;51.990;5.926;2023-09-18T07:33:40;7.57;;;3.53;;
47335;SDS011;33068;51.990;5.926;2023-09-18T07:36:07;4.78;;;3.42;;
47335;SDS011;33068;51.990;5.926;2023-09-18T07:38:35;4.93;;;3.10;;
47335;SDS011;33068;51.990;5.926;2023-09-18T07:41:02;4.95;;;2.85;;
47335;SDS011;33068;51.990;5.926;2023-09-18T07:43:29;6.40;;;4.13;;
47335;SDS011;33068;51.990;5.926;2023-09-18T07:45:55;4.72;;;3.08;;
47335;SDS011;33068;51.990;5.926;2023-09-18T07:48:23;3.92;;;2.83;;
47335;SDS011;33068;51.990;5.926;2023-09-18T07:50:50;5.30;;;2.83;;
47335;SDS011;33068;51.990;5.926;2023-09-18T07:53:16;4.35;;;2.45;;
47335;SDS011;33068;51.990;5.926;2023-09-18T07:55:42;7.05;;;2.92;;
47335;SDS011;33068;51.990;5.926;2023-09-18T07:58:09;5.65;;;2.80;;
47335;SDS011;33068;51.990;5.926;2023-09-18T08:00:37;4.88;;;2.40;;
47335;SDS011;33068;51.990;5.926;2023-09-18T08:03:04;7.50;;;3.03;;
47335;SDS011;33068;51.990;5.926;2023-09-18T08:05:30;4.72;;;2.45;;
47335;SDS011;33068;51.990;5.926;2023-09-18T08:07:57;5.47;;;2.75;;
47335;SDS011;33068;51.990;5.926;2023-09-18T08:10:24;6.82;;;4.15;;
47335;SDS011;33068;51.990;5.926;2023-09-18T08:12:51;3.25;;;2.35;;
47335;SDS011;33068;51.990;5.926;2023-09-18T08:15:18;2.92;;;2.10;;
47335;SDS011;33068;51.990;5.926;2023-09-18T08:17:46;2.63;;;2.20;;
47335;SDS011;33068;51.990;5.926;2023-09-18T08:20:13;3.20;;;1.95;;
47335;SDS011;33068;51.990;5.926;2023-09-18T08:22:40;6.82;;;2.20;;
47335;SDS011;33068;51.990;5.926;2023-09-18T08:25:07;1.92;;;1.55;;
47335;SDS011;33068;51.990;5.926;2023-09-18T08:27:36;4.95;;;1.85;;
47335;SDS011;33068;51.990;5.926;2023-09-18T08:30:06;5.20;;;2.00;;
47335;SDS011;33068;51.990;5.926;2023-09-18T08:32:37;3.38;;;2.35;;
47335;SDS011;33068;51.990;5.926;2023-09-18T08:35:06;2.92;;;1.77;;
47335;SDS011;33068;51.990;5.926;2023-09-18T08:37:33;2.75;;;1.83;;
47335;SDS011;33068;51.990;5.926;2023-09-18T08:40:00;4.32;;;2.00;;
47335;SDS011;33068;51.990;5.926;2023-09-18T08:42:35;2.80;;;1.85;;
47335;SDS011;33068;51.990;5.926;2023-09-18T08:45:04;2.55;;;1.88;;
47335;SDS011;33068;51.990;5.926;2023-09-18T08:47:34;3.42;;;1.55;;
47335;SDS011;33068;51.990;5.926;2023-09-18T08:50:01;2.67;;;1.80;;
47335;SDS011;33068;51.990;5.926;2023-09-18T08:52:29;1.50;;;1.33;;
47335;SDS011;33068;51.990;5.926;2023-09-18T08:54:56;1.50;;;1.27;;
47335;SDS011;33068;51.990;5.926;2023-09-18T08:57:23;2.78;;;1.42;;
47335;SDS011;33068;51.990;5.926;2023-09-18T08:59:50;4.65;;;2.17;;
47335;SDS011;33068;51.990;5.926;2023-09-18T09:02:19;9.98;;;5.18;;
47335;SDS011;33068;51.990;5.926;2023-09-18T09:04:46;3.60;;;1.73;;
47335;SDS011;33068;51.990;5.926;2023-09-18T09:07:12;1.80;;;0.98;;
47335;SDS011;33068;51.990;5.926;2023-09-18T09:09:39;3.22;;;1.60;;
47335;SDS011;33068;51.990;5.926;2023-09-18T09:12:07;3.03;;;1.42;;
47335;SDS011;33068;51.990;5.926;2023-09-18T09:14:34;3.35;;;1.50;;
47335;SDS011;33068;51.990;5.926;2023-09-18T09:17:00;2.03;;;1.20;;
47335;SDS011;33068;51.990;5.926;2023-09-18T09:19:29;3.92;;;1.42;;
47335;SDS011;33068;51.990;5.926;2023-09-18T09:21:56;3.45;;;2.20;;
47335;SDS011;33068;51.990;5.926;2023-09-18T09:24:35;1.40;;;1.23;;
47335;SDS011;33068;51.990;5.926;2023-09-18T09:27:03;1.30;;;1.10;;
47335;SDS011;33068;51.990;5.926;2023-09-18T09:29:30;1.95;;;1.20;;
47335;SDS011;33068;51.990;5.926;2023-09-18T09:31:56;7.75;;;1.40;;
47335;SDS011;33068;51.990;5.926;2023-09-18T09:34:38;2.20;;;1.20;;
47335;SDS011;33068;51.990;5.926;2023-09-18T09:37:06;3.22;;;1.17;;
47335;SDS011;33068;51.990;5.926;2023-09-18T09:39:33;6.07;;;4.15;;
47335;SDS011;33068;51.990;5.926;2023-09-18T09:41:59;1.73;;;1.30;;
47335;SDS011;33068;51.990;5.926;2023-09-18T09:44:29;3.22;;;0.88;;
47335;SDS011;33068;51.990;5.926;2023-09-18T09:46:57;3.05;;;0.85;;
47335;SDS011;33068;51.990;5.926;2023-09-18T09:49:25;4.53;;;1.23;;
47335;SDS011;33068;51.990;5.926;2023-09-18T09:51:58;4.72;;;0.95;;
47335;SDS011;33068;51.990;5.926;2023-09-18T09:54:31;8.05;;;1.10;;
47335;SDS011;33068;51.990;5.926;2023-09-18T09:57:06;2.47;;;0.80;;
47335;SDS011;33068;51.990;5.926;2023-09-18T09:59:33;2.88;;;0.95;;
47335;SDS011;33068;51.990;5.926;2023-09-18T10:02:00;2.92;;;0.90;;
47335;SDS011;33068;51.990;5.926;2023-09-18T10:04:28;1.13;;;0.73;;
47335;SDS011;33068;51.990;5.926;2023-09-18T10:06:58;1.88;;;0.70;;
47335;SDS011;33068;51.990;5.926;2023-09-18T10:09:33;2.17;;;0.82;;
47335;SDS011;33068;51.990;5.926;2023-09-18T10:12:01;2.05;;;0.80;;
47335;SDS011;33068;51.990;5.926;2023-09-18T10:14:33;2.92;;;0.93;;
47335;SDS011;33068;51.990;5.926;2023-09-18T10:17:07;2.58;;;0.88;;
47335;SDS011;33068;51.990;5.926;2023-09-18T10:19:39;1.00;;;0.70;;
47335;SDS011;33068;51.990;5.926;2023-09-18T10:22:19;3.33;;;1.13;;
47335;SDS011;33068;51.990;5.926;2023-09-18T10:24:51;4.60;;;1.30;;
47335;SDS011;33068;51.990;5.926;2023-09-18T10:27:25;2.33;;;1.00;;
47335;SDS011;33068;51.990;5.926;2023-09-18T10:29:54;1.55;;;0.73;;
47335;SDS011;33068;51.990;5.926;2023-09-18T10:32:21;3.33;;;0.77;;
47335;SDS011;33068;51.990;5.926;2023-09-18T10:34:48;1.70;;;0.98;;
47335;SDS011;33068;51.990;5.926;2023-09-18T10:37:15;2.45;;;1.17;;
47335;SDS011;33068;51.990;5.926;2023-09-18T10:39:42;1.48;;;0.95;;
47335;SDS011;33068;51.990;5.926;2023-09-18T10:42:10;1.83;;;0.90;;
47335;SDS011;33068;51.990;5.926;2023-09-18T10:44:39;4.65;;;1.33;;
47335;SDS011;33068;51.990;5.926;2023-09-18T10:47:07;4.65;;;1.00;;
47335;SDS011;33068;51.990;5.926;2023-09-18T10:49:35;3.28;;;1.10;;
47335;SDS011;33068;51.990;5.926;2023-09-18T10:52:02;5.35;;;1.55;;
47335;SDS011;33068;51.990;5.926;2023-09-18T10:54:29;2.60;;;1.40;;
47335;SDS011;33068;51.990;5.926;2023-09-18T10:56:57;3.88;;;1.17;;
47335;SDS011;33068;51.990;5.926;2023-09-18T10:59:24;14.35;;;1.98;;
47335;SDS011;33068;51.990;5.926;2023-09-18T11:01:50;4.15;;;1.30;;
47335;SDS011;33068;51.990;5.926;2023-09-18T11:04:19;4.10;;;1.30;;
47335;SDS011;33068;51.990;5.926;2023-09-18T11:09:41;3.45;;;1.20;;
47335;SDS011;33068;51.990;5.926;2023-09-18T11:12:09;2.20;;;1.13;;
47335;SDS011;33068;51.990;5.926;2023-09-18T11:14:47;3.60;;;1.35;;
47335;SDS011;33068;51.990;5.926;2023-09-18T11:17:31;2.72;;;1.33;;
47335;SDS011;33068;51.990;5.926;2023-09-18T11:20:03;3.47;;;1.77;;
47335;SDS011;33068;51.990;5.926;2023-09-18T11:22:35;5.25;;;1.70;;
47335;SDS011;33068;51.990;5.926;2023-09-18T11:28:00;4.50;;;2.00;;
47335;SDS011;33068;51.990;5.926;2023-09-18T11:30:27;3.30;;;1.48;;
47335;SDS011;33068;51.990;5.926;2023-09-18T11:32:54;4.35;;;1.67;;
47335;SDS011;33068;51.990;5.926;2023-09-18T11:35:22;3.80;;;1.65;;
47335;SDS011;33068;51.990;5.926;2023-09-18T11:38:02;4.30;;;1.90;;
47335;SDS011;33068;51.990;5.926;2023-09-18T11:40:32;4.25;;;1.55;;
47335;SDS011;33068;51.990;5.926;2023-09-18T11:43:19;5.80;;;2.58;;
47335;SDS011;33068;51.990;5.926;2023-09-18T11:45:51;6.72;;;2.05;;
47335;SDS011;33068;51.990;5.926;2023-09-18T11:48:19;5.43;;;1.58;;
47335;SDS011;33068;51.990;5.926;2023-09-18T11:50:51;5.40;;;1.73;;
47335;SDS011;33068;51.990;5.926;2023-09-18T11:53:19;7.10;;;2.22;;
47335;SDS011;33068;51.990;5.926;2023-09-18T11:55:47;2.33;;;1.75;;
47335;SDS011;33068;51.990;5.926;2023-09-18T11:58:14;3.25;;;2.05;;
47335;SDS011;33068;51.990;5.926;2023-09-18T12:00:40;6.05;;;1.92;;
47335;SDS011;33068;51.990;5.926;2023-09-18T12:03:13;5.75;;;2.13;;
47335;SDS011;33068;51.990;5.926;2023-09-18T12:05:44;4.68;;;2.17;;
47335;SDS011;33068;51.990;5.926;2023-09-18T12:08:11;2.63;;;1.70;;
47335;SDS011;33068;51.990;5.926;2023-09-18T12:10:38;2.90;;;1.48;;
47335;SDS011;33068;51.990;5.926;2023-09-18T12:13:05;9.07;;;1.77;;
47335;SDS011;33068;51.990;5.926;2023-09-18T12:15:33;2.92;;;1.55;;
47335;SDS011;33068;51.990;5.926;2023-09-18T12:18:04;2.75;;;1.23;;
47335;SDS011;33068;51.990;5.926;2023-09-18T12:20:33;6.43;;;1.30;;
47335;SDS011;33068;51.990;5.926;2023-09-18T12:22:59;3.58;;;1.70;;
47335;SDS011;33068;51.990;5.926;2023-09-18T12:25:28;4.00;;;1.58;;
47335;SDS011;33068;51.990;5.926;2023-09-18T12:27:55;5.07;;;1.30;;
47335;SDS011;33068;51.990;5.926;2023-09-18T12:30:22;4.50;;;1.60;;
47335;SDS011;33068;51.990;5.926;2023-09-18T12:32:50;10.30;;;1.42;;
47335;SDS011;33068;51.990;5.926;2023-09-18T12:35:17;4.28;;;1.65;;
47335;SDS011;33068;51.990;5.926;2023-09-18T12:37:44;2.53;;;1.20;;
47335;SDS011;33068;51.990;5.926;2023-09-18T12:40:20;3.40;;;1.30;;
47335;SDS011;33068;51.990;5.926;2023-09-18T12:42:51;1.45;;;1.17;;
47335;SDS011;33068;51.990;5.926;2023-09-18T12:45:20;2.45;;;1.33;;
47335;SDS011;33068;51.990;5.926;2023-09-18T12:47:46;1.73;;;1.20;;
47335;SDS011;33068;51.990;5.926;2023-09-18T12:50:13;2.70;;;1.65;;
47335;SDS011;33068;51.990;5.926;2023-09-18T12:52:40;3.72;;;1.67;;
47335;SDS011;33068;51.990;5.926;2023-09-18T12:55:06;3.55;;;1.40;;
47335;SDS011;33068;51.990;5.926;2023-09-18T12:57:33;5.55;;;1.40;;
47335;SDS011;33068;51.990;5.926;2023-09-18T13:00:07;3.33;;;1.40;;
47335;SDS011;33068;51.990;5.926;2023-09-18T13:02:36;3.78;;;1.10;;
47335;SDS011;33068;51.990;5.926;2023-09-18T13:05:03;2.65;;;1.42;;
47335;SDS011;33068;51.990;5.926;2023-09-18T13:07:31;4.05;;;1.30;;
47335;SDS011;33068;51.990;5.926;2023-09-18T13:10:02;2.28;;;0.98;;
47335;SDS011;33068;51.990;5.926;2023-09-18T13:12:40;1.77;;;1.23;;
47335;SDS011;33068;51.990;5.926;2023-09-18T13:15:08;6.07;;;1.65;;
47335;SDS011;33068;51.990;5.926;2023-09-18T13:17:40;2.95;;;0.95;;
47335;SDS011;33068;51.990;5.926;2023-09-18T13:20:11;1.88;;;1.02;;
47335;SDS011;33068;51.990;5.926;2023-09-18T13:22:39;3.03;;;0.90;;
47335;SDS011;33068;51.990;5.926;2023-09-18T13:25:06;1.38;;;0.85;;
47335;SDS011;33068;51.990;5.926;2023-09-18T13:27:34;3.90;;;1.20;;
47335;SDS011;33068;51.990;5.926;2023-09-18T13:30:00;2.92;;;0.90;;
47335;SDS011;33068;51.990;5.926;2023-09-18T13:32:33;3.40;;;0.88;;
47335;SDS011;33068;51.990;5.926;2023-09-18T13:35:01;4.57;;;1.05;;
47335;SDS011;33068;51.990;5.926;2023-09-18T13:37:30;3.58;;;0.93;;
47335;SDS011;33068;51.990;5.926;2023-09-18T13:39:57;5.53;;;0.93;;
47335;SDS011;33068;51.990;5.926;2023-09-18T13:42:26;1.42;;;0.65;;
47335;SDS011;33068;51.990;5.926;2023-09-18T13:44:55;3.03;;;0.90;;
47335;SDS011;33068;51.990;5.926;2023-09-18T13:47:25;4.55;;;0.88;;
47335;SDS011;33068;51.990;5.926;2023-09-18T13:49:53;2.05;;;1.00;;
47335;SDS011;33068;51.990;5.926;2023-09-18T13:52:24;1.65;;;0.75;;
47335;SDS011;33068;51.990;5.926;2023-09-18T13:54:51;4.05;;;1.10;;
47335;SDS011;33068;51.990;5.926;2023-09-18T13:57:17;3.90;;;1.10;;
47335;SDS011;33068;51.990;5.926;2023-09-18T13:59:44;1.30;;;1.02;;
47335;SDS011;33068;51.990;5.926;2023-09-18T14:02:11;3.63;;;0.90;;
47335;SDS011;33068;51.990;5.926;2023-09-18T14:04:37;4.97;;;1.00;;
47335;SDS011;33068;51.990;5.926;2023-09-18T14:07:05;3.83;;;1.20;;
47335;SDS011;33068;51.990;5.926;2023-09-18T14:09:32;3.15;;;0.77;;
47335;SDS011;33068;51.990;5.926;2023-09-18T14:11:58;3.13;;;1.08;;
47335;SDS011;33068;51.990;5.926;2023-09-18T14:14:25;2.03;;;0.70;;
47335;SDS011;33068;51.990;5.926;2023-09-18T14:16:55;2.30;;;0.80;;
47335;SDS011;33068;51.990;5.926;2023-09-18T14:19:22;4.00;;;1.35;;
47335;SDS011;33068;51.990;5.926;2023-09-18T14:21:49;2.45;;;0.73;;
47335;SDS011;33068;51.990;5.926;2023-09-18T14:24:16;1.67;;;0.70;;
47335;SDS011;33068;51.990;5.926;2023-09-18T14:26:43;2.42;;;1.00;;
47335;SDS011;33068;51.990;5.926;2023-09-18T14:29:10;3.13;;;0.85;;
47335;SDS011;33068;51.990;5.926;2023-09-18T14:31:37;1.35;;;0.70;;
47335;SDS011;33068;51.990;5.926;2023-09-18T14:34:03;3.25;;;0.88;;
47335;SDS011;33068;51.990;5.926;2023-09-18T14:36:31;3.75;;;0.93;;
47335;SDS011;33068;51.990;5.926;2023-09-18T14:38:59;3.65;;;0.82;;
47335;SDS011;33068;51.990;5.926;2023-09-18T14:41:26;0.95;;;0.60;;
47335;SDS011;33068;51.990;5.926;2023-09-18T14:43:52;3.08;;;0.70;;
47335;SDS011;33068;51.990;5.926;2023-09-18T14:46:19;2.90;;;0.63;;
47335;SDS011;33068;51.990;5.926;2023-09-18T14:48:46;1.30;;;0.70;;
47335;SDS011;33068;51.990;5.926;2023-09-18T14:51:12;9.57;;;1.05;;
47335;SDS011;33068;51.990;5.926;2023-09-18T14:53:39;4.57;;;0.90;;
47335;SDS011;33068;51.990;5.926;2023-09-18T14:56:05;2.72;;;0.70;;
47335;SDS011;33068;51.990;5.926;2023-09-18T14:58:40;2.03;;;0.80;;
47335;SDS011;33068;51.990;5.926;2023-09-18T15:01:08;2.88;;;0.70;;
47335;SDS011;33068;51.990;5.926;2023-09-18T15:03:35;2.80;;;0.93;;
47335;SDS011;33068;51.990;5.926;2023-09-18T15:06:02;1.48;;;0.80;;